Bregenz, Austria
Current Conditions -  °F | °C
As of 7:50 AM on Sunday 23 Nov 2014 (Local Time) from LSZR Reporting Station
Moderate Fog Moderate Fog  
Wind Chill: 37°   Ceiling: 100
Heat Index: 41°   Visibility: 0.12mi
Dew Point: 41°   Wind: 6mph
Humidity: 100%   Direction: 90°E
Pressure: 30.21"   Gusts: NA
Location:  47.51°N, 9.73°E
Report Text: LSZR 230550Z AUTO 09005KT 0200 R10/0800N FG VV001 05/05 Q1023
Loading
Personal Weather Stations






























Interactive Weather Map New forecast layout! Learn more

10-Day Weather Forecast

Advertisements
Track Severe Weather on mobile